Terminal Aerodrome Forecast
Issued by NWS Knoxville/Tri Cities, TN

Home | Current Version | Previous Version | Text Only | Print | Product List | Glossary On
Versions: 1 2 3 4 5 6 7 8 9 10 11 12 13 14 15 16 17 18 19 20 21 22 23 24 25 26 27 28 29 30 31 32 33 34 35 36 37 38 39 40 41 42 43 44 45 46
000
FTUS44 KMRX 171120
TAFTYS
TAF
KTYS 171120Z 1712/1812 34004KT P6SM BKN020 OVC040
     FM171300 03002KT P6SM SCT025
     FM171600 VRB04KT P6SM SCT035
     FM180100 02003KT P6SM SCT120=

USA.gov is the U.S. government's official web portal to all federal, state and local government web resources and services.